GMMH

Details ICAO GMMH (VIL)
Name Dakhla International
Region Morocco
Timezone Africa/El_Aaiun (UTC+1.0)
Plans Departing 42
Arriving 55
Stats Elevation 36 ft / 11 m (AMSL)
Location 23.718300° -15.931900°
Runways 1
Magnetic Variation 5.190° W
Sunrise 2018-08-20 06:42:35 UTC / 2018-08-20 07:42:35 Local
Sunset 2018-08-20 19:34:39 UTC / 2018-08-20 20:34:39 Local
Advertisement - Login to hide

Runways

ID Width Length Bearing (true/mag) Surface Threshold Overrun Markings Lighting
03 142 ft / 43 m 9,834 ft / 2,997 m 22.69° / 27.88° ASPHALT 0 ft / 0 m 0 ft / 0 m PREC-APP EDGE THRESHOLD
21 142 ft / 43 m 9,834 ft / 2,997 m 202.70° / 207.89° ASPHALT 0 ft / 0 m 0 ft / 0 m PREC-APP EDGE THRESHOLD

Map

Weather


0- 5 10 15 20 25 30 35+ Temperature / °C

Clouds and Precipitation
Forecast for 2018-08-20 12:00 UTC. Updated 6 hours ago

Ground ~20,000 ft ~40,000 ft Winds

METAR

GMMH 201500Z 01022KT CAVOK 23/18 Q1012 NOSIG

TAF

TAF GMMH 201100Z 2012/2118 03018KT 8000 NSC BECMG 2022/2024 BKN010

Frequencies

Tower 118.10 MHz Dakhla Airport Tower
Warning: Do not use this data for real-world aviation or navigation. No guarantee of current accuracy is given.